createdAt,value
2019-05-17T00:02:30.940Z,8.97
2019-05-17T00:05:02.298Z,9.30
2019-05-17T00:07:36.869Z,9.13
2019-05-17T00:10:17.289Z,9.00
2019-05-17T00:12:51.685Z,8.98
2019-05-17T00:15:27.444Z,9.09
2019-05-17T00:18:02.195Z,9.15
2019-05-17T00:20:37.633Z,9.11
2019-05-17T00:23:14.684Z,9.16
2019-05-17T00:25:47.174Z,9.11
2019-05-17T00:28:20.309Z,9.05
2019-05-17T00:30:56.982Z,8.96
2019-05-17T00:33:29.732Z,8.76
2019-05-17T00:36:04.068Z,8.67
2019-05-17T00:38:47.910Z,8.59
2019-05-17T00:41:12.607Z,8.59
2019-05-17T00:43:46.711Z,8.65
2019-05-17T00:46:21.650Z,8.60
2019-05-17T00:48:57.158Z,8.59
2019-05-17T00:51:28.533Z,8.53
2019-05-17T00:56:59.501Z,8.20
2019-05-17T00:59:33.515Z,8.33
2019-05-17T01:02:07.030Z,8.35
2019-05-17T01:04:38.906Z,9.17
2019-05-17T01:07:12.555Z,9.39
2019-05-17T01:09:47.213Z,9.46
2019-05-17T01:12:19.960Z,9.77
2019-05-17T01:14:54.332Z,9.97
2019-05-17T01:17:27.124Z,9.85
2019-05-17T01:19:58.519Z,9.62
2019-05-17T01:22:31.326Z,9.21
2019-05-17T01:25:03.204Z,8.97
2019-05-17T01:27:35.024Z,8.79
2019-05-17T01:30:12.128Z,8.54
2019-05-17T01:32:46.421Z,8.29
2019-05-17T01:35:19.725Z,8.24
2019-05-17T01:37:51.341Z,8.18
2019-05-17T01:40:23.701Z,8.17
2019-05-17T01:42:58.147Z,8.42
2019-05-17T01:45:32.593Z,8.58
2019-05-17T01:48:10.450Z,8.36
2019-05-17T01:50:42.979Z,8.20
2019-05-17T01:53:16.591Z,8.11
2019-05-17T01:55:48.922Z,8.09
2019-05-17T01:58:22.241Z,8.18
2019-05-17T02:00:57.410Z,7.99
2019-05-17T02:03:28.942Z,8.14
2019-05-17T02:06:02.800Z,8.15
2019-05-17T02:08:37.220Z,8.38
2019-05-17T02:14:07.101Z,8.15
2019-05-17T02:16:39.036Z,8.49
2019-05-17T02:19:10.550Z,8.20
2019-05-17T02:21:42.704Z,8.12
2019-05-17T02:24:16.777Z,8.08
2019-05-17T02:26:47.396Z,7.94
2019-05-17T02:29:18.982Z,7.85
2019-05-17T02:31:52.779Z,7.84
2019-05-17T02:34:26.263Z,7.78
2019-05-17T02:36:59.077Z,7.80
2019-05-17T02:39:32.917Z,7.93
2019-05-17T02:42:06.553Z,8.10
2019-05-17T02:44:43.720Z,8.38
2019-05-17T02:47:15.881Z,8.66
2019-05-17T02:49:49.291Z,9.00
2019-05-17T02:52:23.180Z,9.09
2019-05-17T02:54:55.012Z,8.87
2019-05-17T02:57:26.404Z,8.68
2019-05-17T02:59:58.893Z,8.60
2019-05-17T03:02:33.837Z,8.63
2019-05-17T03:05:07.075Z,8.41
2019-05-17T03:07:43.844Z,8.24
2019-05-17T03:10:24.179Z,8.15
2019-05-17T03:12:48.294Z,8.00
2019-05-17T03:15:23.437Z,7.92
2019-05-17T03:17:55.503Z,7.86
2019-05-17T03:20:26.949Z,7.84
2019-05-17T03:22:59.181Z,7.83
2019-05-17T03:25:33.517Z,7.65
2019-05-17T03:28:06.528Z,7.58
2019-05-17T03:30:46.040Z,7.57
2019-05-17T03:33:16.701Z,7.53
2019-05-17T03:35:49.132Z,7.47
2019-05-17T03:38:22.832Z,7.39
2019-05-17T03:41:09.390Z,7.44
2019-05-17T03:43:28.640Z,7.30
2019-05-17T03:46:02.836Z,7.17
2019-05-17T03:48:34.226Z,7.18
2019-05-17T03:51:06.918Z,7.13
2019-05-17T03:53:38.359Z,7.20
2019-05-17T03:56:13.166Z,7.31
2019-05-17T03:58:43.678Z,7.47
2019-05-17T04:01:16.543Z,7.52
2019-05-17T04:03:52.725Z,7.74
2019-05-17T04:06:23.808Z,8.01
2019-05-17T04:08:55.677Z,8.34
2019-05-17T04:11:31.808Z,8.72
2019-05-17T04:14:02.956Z,8.88
2019-05-17T04:16:35.379Z,8.62
2019-05-17T04:19:07.639Z,8.27
2019-05-17T04:21:42.715Z,8.10
2019-05-17T04:24:14.192Z,8.02
2019-05-17T04:26:47.994Z,7.80
2019-05-17T04:29:22.907Z,7.86
2019-05-17T04:31:55.614Z,8.31
2019-05-17T04:34:27.368Z,8.25
2019-05-17T04:36:59.664Z,8.56
2019-05-17T04:39:33.350Z,8.99
2019-05-17T04:42:05.106Z,8.91
2019-05-17T04:44:36.482Z,8.84
2019-05-17T04:47:08.584Z,8.87
2019-05-17T04:49:44.022Z,8.93
2019-05-17T04:52:14.590Z,9.10
2019-05-17T04:54:45.875Z,9.36
2019-05-17T04:57:17.573Z,9.61
2019-05-17T04:59:52.169Z,10.00
2019-05-17T05:02:23.742Z,10.81
2019-05-17T05:04:55.275Z,12.00
2019-05-17T05:07:29.584Z,12.78
2019-05-17T05:10:02.991Z,12.86
2019-05-17T05:12:35.693Z,13.25
2019-05-17T05:15:13.076Z,13.35
2019-05-17T05:17:46.117Z,12.76
2019-05-17T05:20:21.979Z,12.89
2019-05-17T05:22:52.688Z,13.40
2019-05-17T05:25:24.153Z,14.31
2019-05-17T05:27:56.912Z,15.02
2019-05-17T05:30:28.356Z,14.81
2019-05-17T05:33:01.894Z,15.29
2019-05-17T05:35:32.906Z,15.69
2019-05-17T05:38:04.718Z,16.02
2019-05-17T05:40:37.559Z,16.39
2019-05-17T05:43:12.081Z,15.85
2019-05-17T05:45:43.766Z,15.37
2019-05-17T05:48:15.159Z,14.78
2019-05-17T05:50:46.399Z,14.55
2019-05-17T05:53:17.807Z,14.23
2019-05-17T05:55:51.787Z,14.46
2019-05-17T05:58:24.252Z,15.29
2019-05-17T06:00:57.569Z,15.22
2019-05-17T06:03:32.049Z,15.14
2019-05-17T06:06:04.723Z,15.93
2019-05-17T06:08:36.576Z,16.90
2019-05-17T06:11:09.060Z,16.42
2019-05-17T06:13:42.044Z,17.84
2019-05-17T06:16:13.435Z,17.12
2019-05-17T06:18:44.614Z,17.15
2019-05-17T06:21:15.981Z,16.91
2019-05-17T06:23:48.756Z,15.47
2019-05-17T06:26:23.470Z,15.09
2019-05-17T06:28:53.106Z,15.38
2019-05-17T06:31:24.471Z,15.35
2019-05-17T06:33:56.415Z,15.85
2019-05-17T06:36:29.045Z,16.01
2019-05-17T06:39:02.261Z,14.72
2019-05-17T06:41:33.604Z,15.29
2019-05-17T06:44:05.287Z,16.17
2019-05-17T06:46:41.620Z,16.04
2019-05-17T06:49:11.896Z,17.19
2019-05-17T06:51:43.651Z,16.75
2019-05-17T06:54:17.335Z,16.56
2019-05-17T06:56:48.883Z,16.77
2019-05-17T06:59:21.667Z,16.88
2019-05-17T07:01:53.251Z,17.64
2019-05-17T07:04:24.435Z,17.26
2019-05-17T07:07:20.831Z,16.44
2019-05-17T07:10:00.760Z,16.28
2019-05-17T07:12:33.063Z,16.76
2019-05-17T07:15:16.766Z,17.37
2019-05-17T07:17:50.366Z,17.38
2019-05-17T07:20:21.525Z,16.79
2019-05-17T07:22:52.927Z,17.28
2019-05-17T07:25:24.323Z,16.42
2019-05-17T07:27:55.582Z,16.27
2019-05-17T07:30:27.114Z,15.77
2019-05-17T07:33:00.447Z,16.10
2019-05-17T07:35:31.356Z,16.90
2019-05-17T07:38:10.774Z,16.32
2019-05-17T07:40:42.428Z,17.28
2019-05-17T07:43:14.982Z,17.38
2019-05-17T07:45:46.568Z,16.85
2019-05-17T07:48:20.047Z,18.10
2019-05-17T07:50:52.890Z,17.36
2019-05-17T07:53:24.116Z,17.30
2019-05-17T07:55:55.665Z,18.20
2019-05-17T07:58:29.704Z,17.07
2019-05-17T08:01:02.155Z,17.70
2019-05-17T08:03:34.734Z,17.15
2019-05-17T08:06:10.337Z,16.74
2019-05-17T08:08:41.846Z,17.36
2019-05-17T08:11:14.576Z,17.02
2019-05-17T08:13:46.710Z,18.44
2019-05-17T08:16:19.698Z,18.04
2019-05-17T08:18:53.191Z,18.28
2019-05-17T08:21:25.433Z,18.38
2019-05-17T08:24:03.363Z,17.55
2019-05-17T08:26:35.213Z,18.20
2019-05-17T08:29:06.663Z,18.55
2019-05-17T08:31:40.477Z,19.20
2019-05-17T08:34:13.175Z,18.95
2019-05-17T08:36:45.010Z,18.72
2019-05-17T08:39:16.610Z,19.46
2019-05-17T08:41:49.728Z,18.98
2019-05-17T08:44:22.532Z,19.10
2019-05-17T08:46:54.096Z,19.60
2019-05-17T08:49:29.562Z,19.14
2019-05-17T08:52:04.430Z,19.43
2019-05-17T08:54:36.472Z,18.96
2019-05-17T08:57:09.574Z,19.52
2019-05-17T08:59:41.530Z,19.12
2019-05-17T09:02:13.480Z,19.47
2019-05-17T09:04:45.296Z,19.71
2019-05-17T09:07:20.430Z,19.63
2019-05-17T09:09:53.659Z,19.97
2019-05-17T09:12:25.525Z,20.16
2019-05-17T09:15:00.251Z,20.50
2019-05-17T09:17:31.474Z,19.80
2019-05-17T09:20:05.340Z,19.45
2019-05-17T09:22:36.654Z,19.23
2019-05-17T09:25:13.537Z,20.15
2019-05-17T09:27:43.656Z,20.10
2019-05-17T09:30:20.343Z,20.61
2019-05-17T09:32:55.881Z,21.01
2019-05-17T09:35:29.885Z,21.41
2019-05-17T09:38:02.192Z,20.47
2019-05-17T09:40:35.242Z,21.09
2019-05-17T09:43:10.320Z,21.34
2019-05-17T09:45:42.338Z,20.68
2019-05-17T09:48:19.467Z,21.12
2019-05-17T09:50:54.295Z,20.47
2019-05-17T09:53:26.646Z,20.48
2019-05-17T09:56:00.574Z,20.15
2019-05-17T09:58:33.940Z,19.74
2019-05-17T10:01:09.317Z,19.32
2019-05-17T10:03:42.066Z,19.53
2019-05-17T10:06:19.924Z,20.36
2019-05-17T10:08:51.815Z,21.37
2019-05-17T10:11:23.931Z,20.79
2019-05-17T10:13:58.352Z,20.43
2019-05-17T10:16:30.811Z,20.59
2019-05-17T10:19:03.502Z,21.39
2019-05-17T10:21:35.146Z,22.11
2019-05-17T10:24:09.582Z,20.26
2019-05-17T10:26:41.503Z,19.91
2019-05-17T10:29:13.092Z,20.55
2019-05-17T10:31:46.301Z,21.49
2019-05-17T10:34:20.216Z,21.88
2019-05-17T10:36:52.891Z,20.72
2019-05-17T10:39:25.648Z,20.59
2019-05-17T10:41:57.768Z,21.09
2019-05-17T10:44:43.585Z,20.27
2019-05-17T10:47:24.053Z,20.51
2019-05-17T10:49:55.993Z,20.94
2019-05-17T10:52:29.906Z,20.92
2019-05-17T10:55:02.209Z,22.07
2019-05-17T10:57:35.967Z,19.54
2019-05-17T11:00:16.366Z,19.84
2019-05-17T11:02:50.350Z,19.82
2019-05-17T11:05:21.978Z,19.97
2019-05-17T11:07:54.493Z,19.81
2019-05-17T11:10:27.737Z,20.38
2019-05-17T11:13:10.667Z,20.47
2019-05-17T11:15:45.518Z,20.63
2019-05-17T11:18:19.929Z,19.90
2019-05-17T11:20:52.808Z,20.99
2019-05-17T11:23:24.440Z,21.68
2019-05-17T11:25:57.381Z,22.92
2019-05-17T11:28:29.021Z,22.60
2019-05-17T11:31:02.036Z,21.15
2019-05-17T11:33:34.225Z,20.99
2019-05-17T11:36:07.647Z,20.76
2019-05-17T11:38:41.052Z,20.39
2019-05-17T11:41:21.030Z,20.26
2019-05-17T11:43:48.217Z,20.39
2019-05-17T11:46:35.326Z,21.01
2019-05-17T11:48:57.395Z,20.56
2019-05-17T11:51:29.559Z,21.15
2019-05-17T11:54:02.636Z,20.89
2019-05-17T11:56:35.486Z,21.97
2019-05-17T11:59:08.879Z,21.44
2019-05-17T12:01:41.872Z,21.62
2019-05-17T12:04:13.563Z,20.96
2019-05-17T12:06:46.022Z,20.54
2019-05-17T12:09:36.422Z,20.15
2019-05-17T12:11:57.010Z,20.80
2019-05-17T12:14:29.063Z,20.81
2019-05-17T12:17:01.231Z,20.10
2019-05-17T12:19:37.037Z,20.17
2019-05-17T12:22:07.513Z,19.85
2019-05-17T12:24:53.010Z,20.56
2019-05-17T12:27:26.202Z,20.50
2019-05-17T12:35:45.122Z,20.56
2019-05-17T12:44:06.397Z,20.30
2019-05-17T12:46:38.375Z,19.95
2019-05-17T12:49:11.025Z,20.15
2019-05-17T12:51:42.917Z,20.30
2019-05-17T12:54:17.367Z,20.03
2019-05-17T12:56:48.948Z,20.87
2019-05-17T12:59:21.484Z,20.80
2019-05-17T13:01:54.816Z,20.92
2019-05-17T13:04:28.100Z,20.70
2019-05-17T13:07:20.528Z,20.45
2019-05-17T13:09:55.148Z,20.13
2019-05-17T13:12:27.383Z,19.95
2019-05-17T13:15:00.787Z,19.83
2019-05-17T13:17:36.851Z,19.68
2019-05-17T13:20:13.758Z,20.09
2019-05-17T13:22:46.502Z,20.60
2019-05-17T13:25:19.436Z,20.78
2019-05-17T13:27:52.322Z,20.16
2019-05-17T13:30:33.223Z,19.76
2019-05-17T13:33:29.167Z,19.89
2019-05-17T13:36:00.845Z,19.56
2019-05-17T13:39:08.077Z,19.65
2019-05-17T13:45:03.315Z,20.61
2019-05-17T13:47:37.214Z,20.30
2019-05-17T13:50:10.734Z,19.90
2019-05-17T13:52:44.061Z,19.53
2019-05-17T13:55:17.247Z,19.70
2019-05-17T13:57:52.218Z,19.60
2019-05-17T14:03:22.315Z,20.20
2019-05-17T14:05:57.190Z,20.17
2019-05-17T14:08:32.542Z,20.55
2019-05-17T14:11:10.288Z,20.05
2019-05-17T14:13:47.265Z,20.19
2019-05-17T14:19:10.019Z,18.91
2019-05-17T14:21:43.527Z,18.99
2019-05-17T14:24:17.348Z,19.38
2019-05-17T14:26:56.448Z,19.38
2019-05-17T14:29:37.254Z,19.62
2019-05-17T14:32:22.968Z,19.34
2019-05-17T14:35:03.725Z,19.25
2019-05-17T14:37:39.412Z,18.98
2019-05-17T14:40:12.214Z,18.98
2019-05-17T14:42:47.545Z,19.23
2019-05-17T14:50:57.804Z,19.24
2019-05-17T14:53:32.065Z,18.94
2019-05-17T14:56:04.148Z,18.95
2019-05-17T14:58:36.719Z,18.86
2019-05-17T15:03:57.163Z,18.75
2019-05-17T15:06:29.860Z,18.50
2019-05-17T15:09:11.671Z,18.69
2019-05-17T15:11:43.562Z,18.54
2019-05-17T15:14:36.452Z,18.58
2019-05-17T15:17:09.189Z,18.34
2019-05-17T15:19:41.522Z,18.54
2019-05-17T15:22:13.929Z,18.67
2019-05-17T15:24:51.258Z,18.61
2019-05-17T15:27:25.247Z,18.48
2019-05-17T15:29:59.575Z,18.73
2019-05-17T15:32:33.818Z,18.78
2019-05-17T15:35:11.210Z,18.61
2019-05-17T15:37:47.108Z,18.49
2019-05-17T15:40:20.998Z,18.04
2019-05-17T15:42:54.964Z,18.27
2019-05-17T15:45:28.607Z,18.23
2019-05-17T15:48:03.403Z,18.23
2019-05-17T15:50:37.401Z,18.29
2019-05-17T15:53:10.355Z,18.31
2019-05-17T15:55:45.769Z,18.29
2019-05-17T15:58:19.083Z,18.34
2019-05-17T16:03:48.075Z,18.14
2019-05-17T16:06:22.549Z,18.05
2019-05-17T16:08:55.752Z,17.79
2019-05-17T16:11:31.620Z,17.80
2019-05-17T16:14:04.800Z,17.83
2019-05-17T16:17:04.452Z,17.82
2019-05-17T16:19:54.648Z,17.62
2019-05-17T16:22:33.430Z,17.77
2019-05-17T16:25:26.872Z,17.67
2019-05-17T16:28:00.657Z,17.56
2019-05-17T16:30:34.019Z,17.52
2019-05-17T16:33:06.882Z,17.41
2019-05-17T16:39:09.139Z,17.46
2019-05-17T16:41:55.401Z,17.42
2019-05-17T16:44:51.747Z,17.21
2019-05-17T16:47:32.547Z,17.03
2019-05-17T16:50:18.459Z,17.19
2019-05-17T16:53:19.749Z,17.14
2019-05-17T16:55:58.164Z,17.30
2019-05-17T16:58:53.224Z,17.22
2019-05-17T17:01:27.955Z,17.40
2019-05-17T17:04:02.846Z,17.58
2019-05-17T17:06:37.337Z,17.56
2019-05-17T17:09:13.534Z,17.42
2019-05-17T17:11:47.422Z,17.16
2019-05-17T17:14:21.454Z,17.27
2019-05-17T17:16:53.544Z,17.39
2019-05-17T17:19:37.806Z,17.28
2019-05-17T17:22:20.252Z,17.22
2019-05-17T17:24:56.493Z,17.00
2019-05-17T17:27:49.482Z,16.95
2019-05-17T17:30:25.750Z,16.85
2019-05-17T17:32:58.162Z,16.82
2019-05-17T17:35:30.606Z,16.79
2019-05-17T17:38:01.037Z,16.86
2019-05-17T17:40:39.027Z,16.77
2019-05-17T17:43:15.187Z,16.70
2019-05-17T17:45:50.541Z,16.69
2019-05-17T17:48:45.902Z,16.62
2019-05-17T17:51:24.306Z,16.39
2019-05-17T17:53:56.542Z,16.33
2019-05-17T17:59:28.200Z,16.28
2019-05-17T18:02:03.336Z,16.21
2019-05-17T18:04:37.863Z,16.12
2019-05-17T18:07:16.191Z,16.10
2019-05-17T18:10:09.726Z,16.12
2019-05-17T18:15:50.229Z,16.00
2019-05-17T18:18:24.934Z,15.96
2019-05-17T18:21:00.192Z,15.90
2019-05-17T18:23:52.891Z,15.94
2019-05-17T18:26:26.887Z,15.91
2019-05-17T18:28:59.970Z,15.85
2019-05-17T18:31:53.794Z,15.82
2019-05-17T18:34:26.532Z,15.75
2019-05-17T18:37:01.989Z,15.69
2019-05-17T18:39:35.317Z,15.61
2019-05-17T18:42:09.962Z,15.64
2019-05-17T18:44:42.897Z,15.62
2019-05-17T18:47:38.524Z,15.44
2019-05-17T18:50:18.097Z,15.47
2019-05-17T18:52:51.006Z,15.31
2019-05-17T18:55:23.243Z,15.45
2019-05-17T18:57:56.227Z,15.40
2019-05-17T19:00:30.530Z,15.26
2019-05-17T19:03:03.328Z,15.38
2019-05-17T19:05:36.052Z,15.28
2019-05-17T19:08:09.090Z,15.28
2019-05-17T19:10:41.682Z,15.19
2019-05-17T19:13:14.396Z,15.14
2019-05-17T19:15:47.365Z,15.18
2019-05-17T19:18:40.565Z,15.16
2019-05-17T19:21:18.166Z,15.07
2019-05-17T19:24:11.057Z,15.12
2019-05-17T19:26:47.335Z,14.96
2019-05-17T19:29:20.767Z,14.79
2019-05-17T19:31:56.070Z,14.70
2019-05-17T19:34:30.070Z,14.62
2019-05-17T19:37:05.308Z,14.69
2019-05-17T19:39:39.525Z,14.74
2019-05-17T19:42:13.090Z,14.78
2019-05-17T19:44:58.686Z,14.82
2019-05-17T19:47:20.930Z,14.88
2019-05-17T19:49:56.360Z,14.86
2019-05-17T19:52:29.041Z,14.80
2019-05-17T19:55:02.515Z,14.85
2019-05-17T19:57:36.831Z,14.81
2019-05-17T20:00:15.528Z,14.87
2019-05-17T20:02:53.192Z,14.84
2019-05-17T20:05:25.693Z,14.78
2019-05-17T20:07:59.093Z,14.76
2019-05-17T20:10:31.897Z,14.73
2019-05-17T20:13:05.634Z,14.87
2019-05-17T20:15:39.156Z,14.64
2019-05-17T20:18:14.029Z,14.58
2019-05-17T20:20:48.295Z,14.55
2019-05-17T20:23:22.522Z,14.52
2019-05-17T20:25:56.235Z,14.52
2019-05-17T20:28:31.652Z,14.50
2019-05-17T20:31:04.662Z,14.55
2019-05-17T20:33:37.260Z,14.44
2019-05-17T20:36:11.861Z,14.49
2019-05-17T20:41:46.075Z,14.38
2019-05-17T20:44:18.990Z,14.36
2019-05-17T20:46:51.595Z,14.42
2019-05-17T20:49:25.410Z,14.43
2019-05-17T20:51:58.660Z,14.41
2019-05-17T20:54:33.695Z,14.49
2019-05-17T20:57:07.515Z,14.43
2019-05-17T20:59:39.710Z,14.30
2019-05-17T21:02:14.502Z,14.17
2019-05-17T21:04:49.379Z,14.07
2019-05-17T21:07:21.561Z,13.96
2019-05-17T21:09:53.779Z,13.81
2019-05-17T21:12:27.705Z,13.73
2019-05-17T21:14:59.784Z,13.66
2019-05-17T21:17:33.488Z,13.59
2019-05-17T21:20:07.682Z,13.74
2019-05-17T21:22:40.358Z,13.60
2019-05-17T21:25:14.578Z,13.51
2019-05-17T21:27:48.265Z,13.50
2019-05-17T21:30:20.965Z,13.64
2019-05-17T21:32:54.673Z,13.68
2019-05-17T21:35:30.237Z,13.88
2019-05-17T21:38:23.974Z,13.94
2019-05-17T21:40:59.661Z,13.92
2019-05-17T21:43:34.457Z,13.87
2019-05-17T21:46:10.790Z,13.91
2019-05-17T21:48:44.783Z,13.94
2019-05-17T21:51:17.598Z,13.94
2019-05-17T21:53:50.257Z,13.91
2019-05-17T21:56:23.000Z,13.98
2019-05-17T21:58:55.866Z,13.99
2019-05-17T22:01:31.927Z,13.96
2019-05-17T22:04:05.057Z,14.02
2019-05-17T22:06:40.042Z,14.09
2019-05-17T22:09:13.658Z,14.17
2019-05-17T22:12:11.141Z,14.17
2019-05-17T22:14:46.776Z,14.18
2019-05-17T22:17:19.378Z,14.21
2019-05-17T22:19:52.095Z,14.17
2019-05-17T22:22:25.259Z,14.16
2019-05-17T22:24:59.414Z,14.16
2019-05-17T22:27:32.605Z,14.09
2019-05-17T22:30:09.725Z,14.14
2019-05-17T22:32:42.519Z,14.08
2019-05-17T22:35:17.914Z,14.09
2019-05-17T22:37:49.915Z,14.17
2019-05-17T22:40:22.614Z,14.12
2019-05-17T22:42:55.169Z,14.07
2019-05-17T22:45:28.275Z,13.97
2019-05-17T22:52:19.726Z,14.05
2019-05-17T22:54:52.776Z,13.97
2019-05-17T22:57:25.816Z,13.98
2019-05-17T22:59:58.589Z,13.98
2019-05-17T23:02:31.667Z,13.99
2019-05-17T23:05:04.647Z,14.00
2019-05-17T23:07:37.947Z,13.84
2019-05-17T23:10:11.180Z,13.75
2019-05-17T23:12:43.567Z,13.77
2019-05-17T23:15:18.512Z,13.72
2019-05-17T23:17:51.327Z,13.79
2019-05-17T23:20:24.366Z,13.77
2019-05-17T23:22:56.913Z,13.81
2019-05-17T23:25:32.755Z,13.76
2019-05-17T23:28:07.587Z,13.81
2019-05-17T23:30:41.559Z,13.82
2019-05-17T23:33:15.184Z,13.76
2019-05-17T23:35:49.055Z,13.66
2019-05-17T23:38:29.194Z,13.59
2019-05-17T23:41:02.077Z,13.64
2019-05-17T23:43:35.009Z,13.69
2019-05-17T23:46:08.309Z,13.50
2019-05-17T23:48:42.698Z,13.45
2019-05-17T23:51:25.066Z,13.32
2019-05-17T23:53:58.080Z,13.17
2019-05-17T23:56:32.767Z,13.08
2019-05-17T23:59:10.482Z,13.00
